Time;durP1;ratioP1;P1;durP2;ratioP2;P2;SDS_P1;SDS_P2;PMS_P1;PMS_P2;Temp;Humidity;BMP_temperature;BMP_pressure;BME280_temperature;BME280_humidity;BME280_pressure;Samples;Min_cycle;Max_cycle;Signal;HPM_P1;HPM_P2
2023/03/15 00:02:08;;;;;;;6.40;4.55;;;;;;;;;;5051247;28;20094;-64
2023/03/15 00:04:35;;;;;;;8.68;6.18;;;;;;;;;;5049727;28;20041;-64
2023/03/15 00:07:02;;;;;;;8.57;5.53;;;;;;;;;;5052482;28;20057;-64
2023/03/15 00:09:28;;;;;;;9.63;6.40;;;;;;;;;;5046975;28;20139;-64
2023/03/15 00:11:55;;;;;;;6.38;4.13;;;;;;;;;;5052348;28;20068;-64
2023/03/15 00:14:21;;;;;;;8.63;3.80;;;;;;;;;;5044461;28;20051;-64
2023/03/15 00:16:47;;;;;;;6.07;3.60;;;;;;;;;;5052010;28;20047;-64
2023/03/15 00:19:14;;;;;;;8.38;3.92;;;;;;;;;;5031532;28;20459;-64
2023/03/15 00:21:42;;;;;;;5.75;3.80;;;;;;;;;;5051636;28;20492;-64
2023/03/15 00:24:08;;;;;;;;;;;;;;;;;;5041463;28;20048;-63
2023/03/15 00:26:35;;;;;;;12.10;6.70;;;;;;;;;;5051746;28;19924;-64
2023/03/15 00:29:01;;;;;;;6.32;3.38;;;;;;;;;;5032034;28;20519;-64
2023/03/15 00:31:28;;;;;;;5.30;4.00;;;;;;;;;;5052218;28;20041;-64
2023/03/15 00:33:54;;;;;;;7.07;4.32;;;;;;;;;;5030025;28;20152;-64
2023/03/15 00:36:23;;;;;;;5.35;4.13;;;;;;;;;;5051650;28;20162;-64
2023/03/15 00:38:52;;;;;;;6.53;3.78;;;;;;;;;;5039553;28;20412;-64
2023/03/15 00:41:19;;;;;;;5.88;3.70;;;;;;;;;;5052052;28;20049;-64
2023/03/15 00:43:46;;;;;;;4.75;3.65;;;;;;;;;;5037503;28;20049;-63
2023/03/15 00:46:13;;;;;;;6.55;3.70;;;;;;;;;;5051663;28;20049;-64
2023/03/15 00:48:39;;;;;;;4.50;3.60;;;;;;;;;;5037437;28;20046;-64
2023/03/15 00:51:07;;;;;;;5.55;3.33;;;;;;;;;;5023889;28;20061;-64
2023/03/15 00:53:34;;;;;;;6.15;4.43;;;;;;;;;;5026614;28;20049;-64
2023/03/15 00:56:05;;;;;;;7.07;4.80;;;;;;;;;;5048067;28;20057;-64
2023/03/15 00:58:31;;;;;;;7.28;5.78;;;;;;;;;;5049564;28;20393;-64
2023/03/15 01:00:57;;;;;;;10.30;5.95;;;;;;;;;;5051379;28;20508;-64
2023/03/15 01:03:24;;;;;;;8.43;5.25;;;;;;;;;;5046902;28;20049;-64
2023/03/15 01:05:50;;;;;;;5.18;4.68;;;;;;;;;;5051158;28;20045;-64
2023/03/15 01:08:16;;;;;;;6.55;3.85;;;;;;;;;;5047994;28;20045;-64
2023/03/15 01:10:43;;;;;;;6.75;4.30;;;;;;;;;;5051040;28;20361;-64
2023/03/15 01:13:09;;;;;;;5.25;4.47;;;;;;;;;;5046643;28;20055;-64
2023/03/15 01:15:35;;;;;;;5.35;4.13;;;;;;;;;;5050973;28;20550;-64
2023/03/15 01:18:02;;;;;;;6.03;4.15;;;;;;;;;;5045983;28;20053;-64
2023/03/15 01:20:28;;;;;;;9.55;5.90;;;;;;;;;;5051422;28;20049;-64
2023/03/15 01:22:54;;;;;;;6.55;4.07;;;;;;;;;;5045127;28;20497;-64
2023/03/15 01:25:21;;;;;;;4.88;3.38;;;;;;;;;;5050657;28;20045;-63
2023/03/15 01:27:47;;;;;;;5.45;3.65;;;;;;;;;;5039799;28;20042;-64
2023/03/15 01:30:14;;;;;;;8.35;4.80;;;;;;;;;;5046569;28;20056;-64
2023/03/15 01:32:40;;;;;;;9.45;5.90;;;;;;;;;;5045512;28;20050;-63
2023/03/15 01:35:07;;;;;;;6.90;4.57;;;;;;;;;;5045042;28;20056;-64
2023/03/15 01:37:33;;;;;;;6.95;3.92;;;;;;;;;;5046027;28;20156;-64
2023/03/15 01:39:59;;;;;;;6.13;4.03;;;;;;;;;;5031374;28;20057;-64
2023/03/15 01:42:26;;;;;;;5.80;4.35;;;;;;;;;;5045294;28;20049;-64
2023/03/15 01:44:54;;;;;;;7.55;5.57;;;;;;;;;;5041489;28;20041;-64
2023/03/15 01:47:20;;;;;;;8.85;5.40;;;;;;;;;;5047485;28;20055;-64
2023/03/15 01:49:50;;;;;;;12.88;4.30;;;;;;;;;;5040392;28;20055;-64
2023/03/15 01:52:20;;;;;;;4.63;3.58;;;;;;;;;;5047393;28;20053;-64
2023/03/15 01:54:49;;;;;;;6.10;4.28;;;;;;;;;;5027301;28;20045;-64
2023/03/15 01:57:21;;;;;;;6.20;4.90;;;;;;;;;;5049554;28;20052;-64
2023/03/15 01:59:51;;;;;;;7.68;5.18;;;;;;;;;;5049921;28;20045;-64
2023/03/15 02:02:21;;;;;;;7.60;5.00;;;;;;;;;;5050254;28;20053;-64
2023/03/15 02:04:54;;;;;;;7.18;4.43;;;;;;;;;;5054284;28;20056;-64
2023/03/15 02:07:23;;;;;;;7.70;4.78;;;;;;;;;;5051444;28;20051;-64
2023/03/15 02:10:04;;;;;;;9.65;7.22;;;;;;;;;;5040803;28;20047;-64
2023/03/15 02:12:33;;;;;;;7.18;5.53;;;;;;;;;;5049675;28;20085;-64
2023/03/15 02:15:00;;;;;;;11.70;7.07;;;;;;;;;;5054185;28;20041;-64
2023/03/15 02:17:42;;;;;;;8.57;6.47;;;;;;;;;;5048846;28;20052;-64
2023/03/15 02:20:27;;;;;;;8.38;5.07;;;;;;;;;;5041076;28;20469;-64
2023/03/15 02:22:55;;;;;;;8.48;5.53;;;;;;;;;;5043971;28;20412;-64
2023/03/15 02:25:21;;;;;;;8.35;5.93;;;;;;;;;;5053649;28;20037;-64
2023/03/15 02:27:48;;;;;;;10.55;6.38;;;;;;;;;;5047201;28;20045;-64
2023/03/15 02:30:14;;;;;;;9.15;5.88;;;;;;;;;;5050659;28;20712;-64
2023/03/15 02:32:40;;;;;;;6.88;5.00;;;;;;;;;;5048126;28;20236;-64
2023/03/15 02:35:07;;;;;;;5.85;4.30;;;;;;;;;;5047965;28;20132;-64
2023/03/15 02:37:33;;;;;;;4.53;4.00;;;;;;;;;;5048724;28;20041;-64
2023/03/15 02:40:00;;;;;;;5.32;4.63;;;;;;;;;;5046698;28;20041;-64
2023/03/15 02:42:27;;;;;;;6.35;4.53;;;;;;;;;;5049341;28;20053;-64
2023/03/15 02:44:54;;;;;;;5.75;4.43;;;;;;;;;;5043806;28;20492;-64
2023/03/15 02:47:25;;;;;;;6.00;4.90;;;;;;;;;;5050204;28;20041;-64
2023/03/15 02:49:52;;;;;;;7.93;4.80;;;;;;;;;;5044195;28;20045;-64
2023/03/15 02:52:20;;;;;;;7.47;5.40;;;;;;;;;;5049905;28;20061;-64
2023/03/15 02:54:46;;;;;;;6.53;5.40;;;;;;;;;;5029974;28;20055;-64
2023/03/15 02:57:13;;;;;;;6.75;5.00;;;;;;;;;;5052128;28;20060;-64
2023/03/15 02:59:41;;;;;;;5.50;4.63;;;;;;;;;;5052856;28;20144;-64
2023/03/15 03:02:10;;;;;;;6.43;4.80;;;;;;;;;;5051714;28;20053;-64
2023/03/15 03:04:37;;;;;;;6.80;5.55;;;;;;;;;;5051495;28;20044;-64
2023/03/15 03:07:03;;;;;;;8.95;5.93;;;;;;;;;;5053671;28;20053;-64
2023/03/15 03:09:30;;;;;;;5.97;4.70;;;;;;;;;;5047954;28;20053;-64
2023/03/15 03:11:56;;;;;;;6.50;5.03;;;;;;;;;;5051515;28;20382;-64
2023/03/15 03:14:22;;;;;;;7.65;4.95;;;;;;;;;;5046079;28;20060;-64
2023/03/15 03:16:50;;;;;;;6.82;4.85;;;;;;;;;;5053412;28;20057;-64
2023/03/15 03:19:17;;;;;;;6.78;4.93;;;;;;;;;;5044676;28;20092;-64
2023/03/15 03:21:43;;;;;;;7.45;5.15;;;;;;;;;;5052896;28;20049;-64
2023/03/15 03:24:10;;;;;;;8.10;5.30;;;;;;;;;;5040382;28;20063;-64
2023/03/15 03:26:37;;;;;;;10.57;5.68;;;;;;;;;;5053075;28;20045;-64
2023/03/15 03:29:06;;;;;;;8.82;5.50;;;;;;;;;;5048814;28;20064;-63
2023/03/15 03:31:33;;;;;;;7.03;5.10;;;;;;;;;;5052908;28;20481;-64
2023/03/15 03:33:59;;;;;;;6.90;5.32;;;;;;;;;;5030349;28;20049;-64
2023/03/15 03:36:25;;;;;;;7.20;5.20;;;;;;;;;;5052661;28;20443;-64
2023/03/15 03:38:56;;;;;;;6.05;5.00;;;;;;;;;;5039478;28;20059;-64
2023/03/15 03:41:22;;;;;;;6.38;4.68;;;;;;;;;;5053110;28;20052;-64
2023/03/15 03:43:48;;;;;;;7.15;5.28;;;;;;;;;;5037568;28;20046;-64
2023/03/15 03:46:15;;;;;;;8.82;5.90;;;;;;;;;;5052243;28;20051;-64
2023/03/15 03:48:41;;;;;;;7.63;5.78;;;;;;;;;;5026230;28;20153;-64
2023/03/15 03:51:08;;;;;;;9.50;5.85;;;;;;;;;;5050312;28;20061;-64
2023/03/15 03:53:34;;;;;;;7.93;5.35;;;;;;;;;;5050208;28;20488;-64
2023/03/15 03:56:02;;;;;;;7.35;5.70;;;;;;;;;;5052083;28;20049;-64
2023/03/15 03:58:29;;;;;;;7.30;5.00;;;;;;;;;;5049566;28;20532;-64
2023/03/15 04:00:55;;;;;;;8.80;5.80;;;;;;;;;;5052803;28;20128;-64
2023/03/15 04:03:25;;;;;;;9.48;6.40;;;;;;;;;;5046282;28;20055;-64
2023/03/15 04:05:53;;;;;;;6.43;5.38;;;;;;;;;;5051811;28;20049;-64
2023/03/15 04:08:20;;;;;;;5.82;4.72;;;;;;;;;;5047336;28;20400;-64
2023/03/15 04:10:52;;;;;;;7.07;5.07;;;;;;;;;;5052275;28;20051;-64
2023/03/15 04:13:19;;;;;;;6.70;5.00;;;;;;;;;;5043389;28;20099;-64
2023/03/15 04:15:46;;;;;;;6.90;5.00;;;;;;;;;;5052037;28;20057;-64
2023/03/15 04:18:13;;;;;;;6.90;4.93;;;;;;;;;;5045453;28;20049;-64
2023/03/15 04:20:45;;;;;;;7.13;4.65;;;;;;;;;;5052102;28;20508;-64
2023/03/15 04:23:13;;;;;;;8.95;5.25;;;;;;;;;;5044220;28;20471;-64
2023/03/15 04:25:39;;;;;;;6.10;5.35;;;;;;;;;;5051046;28;20048;-64
2023/03/15 04:28:09;;;;;;;6.72;5.28;;;;;;;;;;5043639;28;20049;-64
2023/03/15 04:30:36;;;;;;;7.40;5.63;;;;;;;;;;5052110;28;20106;-64
2023/03/15 04:33:02;;;;;;;5.85;5.10;;;;;;;;;;5042761;28;20063;-64
2023/03/15 04:35:30;;;;;;;5.68;5.18;;;;;;;;;;5045513;28;20120;-64
2023/03/15 04:37:57;;;;;;;5.40;4.90;;;;;;;;;;5028950;28;20405;-64
2023/03/15 04:40:23;;;;;;;6.43;5.15;;;;;;;;;;5046532;28;20052;-64
2023/03/15 04:42:50;;;;;;;6.10;4.75;;;;;;;;;;5044454;28;20075;-64
2023/03/15 04:45:17;;;;;;;4.82;4.35;;;;;;;;;;5045863;28;20564;-64
2023/03/15 04:47:43;;;;;;;5.70;5.20;;;;;;;;;;5044860;28;20501;-64
2023/03/15 04:50:10;;;;;;;5.97;5.25;;;;;;;;;;5045918;28;20052;-64
2023/03/15 04:52:36;;;;;;;5.70;5.10;;;;;;;;;;5045201;28;20049;-64
2023/03/15 04:55:02;;;;;;;6.32;4.95;;;;;;;;;;5043127;28;20480;-64
2023/03/15 04:57:29;;;;;;;6.65;5.85;;;;;;;;;;5045122;28;20053;-64
2023/03/15 04:59:56;;;;;;;6.75;5.75;;;;;;;;;;5031762;28;20053;-64
2023/03/15 05:02:22;;;;;;;5.45;4.70;;;;;;;;;;5046242;28;20053;-63
2023/03/15 05:04:49;;;;;;;7.07;5.32;;;;;;;;;;5028429;28;20049;-64
2023/03/15 05:07:15;;;;;;;5.40;4.55;;;;;;;;;;5049947;28;20072;-64
2023/03/15 05:09:44;;;;;;;6.57;5.07;;;;;;;;;;5051246;28;20507;-64
2023/03/15 05:12:11;;;;;;;7.65;4.88;;;;;;;;;;5049172;28;20586;-64
2023/03/15 05:14:38;;;;;;;5.95;4.85;;;;;;;;;;5050455;28;20052;-64
2023/03/15 05:17:04;;;;;;;6.22;4.50;;;;;;;;;;5051113;28;20128;-64
2023/03/15 05:19:33;;;;;;;6.07;4.70;;;;;;;;;;5046586;28;20142;-64
2023/03/15 05:22:01;;;;;;;5.93;4.25;;;;;;;;;;5051476;28;20103;-63
2023/03/15 05:24:27;;;;;;;6.90;4.93;;;;;;;;;;5045276;28;20045;-64
2023/03/15 05:26:53;;;;;;;8.65;4.60;;;;;;;;;;5051261;28;20041;-64
2023/03/15 05:29:20;;;;;;;6.63;4.78;;;;;;;;;;5042494;28;20061;-64
2023/03/15 05:31:47;;;;;;;6.07;4.70;;;;;;;;;;5051183;28;20068;-64
2023/03/15 05:34:14;;;;;;;5.68;4.32;;;;;;;;;;5033341;28;20060;-64
2023/03/15 05:36:43;;;;;;;5.63;4.18;;;;;;;;;;5054684;28;20052;-64
2023/03/15 05:39:10;;;;;;;5.05;4.30;;;;;;;;;;5035136;28;20562;-64
2023/03/15 05:41:36;;;;;;;7.17;4.63;;;;;;;;;;5055080;28;20051;-64
2023/03/15 05:44:03;;;;;;;6.85;4.63;;;;;;;;;;5042203;28;20049;-64
2023/03/15 05:46:30;;;;;;;5.97;4.90;;;;;;;;;;5054716;28;20045;-64
2023/03/15 05:48:57;;;;;;;6.43;4.75;;;;;;;;;;5042237;28;20041;-64
2023/03/15 05:51:23;;;;;;;5.32;4.40;;;;;;;;;;5054922;28;20092;-64
2023/03/15 05:53:49;;;;;;;6.15;4.95;;;;;;;;;;5040786;28;20505;-64
2023/03/15 05:56:16;;;;;;;7.72;5.00;;;;;;;;;;5054531;28;20053;-64
2023/03/15 05:58:42;;;;;;;6.63;4.68;;;;;;;;;;5028318;28;20053;-64
2023/03/15 06:01:09;;;;;;;5.40;4.57;;;;;;;;;;5054236;28;20508;-64
2023/03/15 06:03:35;;;;;;;5.10;4.30;;;;;;;;;;5029399;28;20056;-64
2023/03/15 06:06:02;;;;;;;6.13;4.65;;;;;;;;;;5050912;28;20119;-64
2023/03/15 06:08:28;;;;;;;5.22;4.72;;;;;;;;;;5052779;28;20049;-64
2023/03/15 06:10:55;;;;;;;5.60;4.80;;;;;;;;;;5054430;28;20452;-64
2023/03/15 06:13:21;;;;;;;7.53;4.93;;;;;;;;;;5051583;28;20041;-64
2023/03/15 06:15:47;;;;;;;9.50;5.60;;;;;;;;;;5039944;28;20063;-64
2023/03/15 06:18:16;;;;;;;9.32;5.95;;;;;;;;;;5049630;28;20049;-64
2023/03/15 06:20:43;;;;;;;8.38;6.05;;;;;;;;;;5054481;28;20059;-64
2023/03/15 06:23:09;;;;;;;8.73;6.00;;;;;;;;;;5049687;28;20057;-64
2023/03/15 06:25:35;;;;;;;9.05;5.88;;;;;;;;;;5053753;28;20045;-64
2023/03/15 06:28:02;;;;;;;7.03;4.82;;;;;;;;;;5048706;28;20041;-64
2023/03/15 06:30:28;;;;;;;6.45;4.60;;;;;;;;;;5054294;28;20118;-64
2023/03/15 06:32:55;;;;;;;10.35;7.22;;;;;;;;;;5046090;28;20429;-64
2023/03/15 06:35:21;;;;;;;9.73;6.13;;;;;;;;;;5052055;28;20057;-64
2023/03/15 06:37:48;;;;;;;12.45;6.25;;;;;;;;;;5047172;28;20140;-64
2023/03/15 06:40:14;;;;;;;7.53;5.78;;;;;;;;;;5050468;28;20044;-64
2023/03/15 06:42:41;;;;;;;8.75;6.32;;;;;;;;;;5047581;28;20053;-64
2023/03/15 06:45:08;;;;;;;10.15;7.20;;;;;;;;;;5047607;28;20056;-64
2023/03/15 06:47:35;;;;;;;8.05;6.80;;;;;;;;;;5044693;28;20077;-64
2023/03/15 06:50:01;;;;;;;12.95;9.30;;;;;;;;;;5039465;28;20415;-64
2023/03/15 06:52:29;;;;;;;7.88;6.15;;;;;;;;;;5049169;28;20081;-63
2023/03/15 06:54:55;;;;;;;11.18;7.05;;;;;;;;;;5044488;28;20056;-64
2023/03/15 06:57:21;;;;;;;10.13;7.82;;;;;;;;;;5050259;28;20063;-64
2023/03/15 06:59:48;;;;;;;8.05;6.18;;;;;;;;;;5043363;28;20136;-64
2023/03/15 07:02:15;;;;;;;9.20;7.00;;;;;;;;;;5050953;28;20049;-64
2023/03/15 07:04:43;;;;;;;10.23;6.88;;;;;;;;;;5028428;28;20091;-64
2023/03/15 07:07:10;;;;;;;10.20;7.88;;;;;;;;;;5051177;28;20055;-64
2023/03/15 07:09:36;;;;;;;8.65;6.50;;;;;;;;;;5025798;28;20055;-64
2023/03/15 07:12:03;;;;;;;8.90;7.70;;;;;;;;;;5053350;28;20051;-64
2023/03/15 07:14:29;;;;;;;9.93;7.75;;;;;;;;;;5049857;28;20052;-64
2023/03/15 07:16:56;;;;;;;9.98;8.00;;;;;;;;;;5052816;28;20052;-64
2023/03/15 07:19:22;;;;;;;9.65;8.38;;;;;;;;;;5038262;28;20053;-64
2023/03/15 07:21:48;;;;;;;9.07;8.18;;;;;;;;;;5048463;28;20053;-64
2023/03/15 07:24:15;;;;;;;10.82;7.65;;;;;;;;;;5031659;28;20045;-64
2023/03/15 07:26:41;;;;;;;10.55;7.47;;;;;;;;;;5052074;28;20041;-63
2023/03/15 07:29:07;;;;;;;8.93;7.45;;;;;;;;;;5040168;28;20394;-64
2023/03/15 07:31:34;;;;;;;9.27;7.55;;;;;;;;;;5052991;28;20055;-64
2023/03/15 07:34:00;;;;;;;10.32;7.18;;;;;;;;;;5031865;28;20049;-63
2023/03/15 07:36:26;;;;;;;7.30;6.55;;;;;;;;;;5032769;28;20056;-63
2023/03/15 07:38:53;;;;;;;8.95;6.55;;;;;;;;;;5031473;28;20059;-63
2023/03/15 07:41:19;;;;;;;7.22;6.43;;;;;;;;;;5032814;28;20053;-63
2023/03/15 07:43:45;;;;;;;9.88;6.93;;;;;;;;;;5022740;28;20470;-63
2023/03/15 07:46:12;;;;;;;8.90;7.07;;;;;;;;;;5052818;28;20503;-63
2023/03/15 07:48:38;;;;;;;8.07;7.28;;;;;;;;;;5026757;28;20050;-63
2023/03/15 07:51:05;;;;;;;10.02;8.73;;;;;;;;;;5049522;28;20063;-63
2023/03/15 07:53:31;;;;;;;8.88;7.65;;;;;;;;;;5049818;28;20413;-63
2023/03/15 07:55:57;;;;;;;9.10;6.63;;;;;;;;;;5051062;28;20049;-63
2023/03/15 07:58:24;;;;;;;8.25;6.30;;;;;;;;;;5049011;28;20408;-63
2023/03/15 08:00:52;;;;;;;6.93;6.22;;;;;;;;;;5052074;28;20482;-63
2023/03/15 08:03:19;;;;;;;8.88;6.18;;;;;;;;;;5047689;28;20053;-63
2023/03/15 08:05:45;;;;;;;7.47;5.90;;;;;;;;;;5051519;28;20049;-64
2023/03/15 08:08:12;;;;;;;6.70;5.95;;;;;;;;;;5044441;28;20045;-63
2023/03/15 08:10:38;;;;;;;6.97;5.78;;;;;;;;;;5050797;28;20495;-63
2023/03/15 08:13:04;;;;;;;6.82;5.72;;;;;;;;;;5042663;28;20053;-63
2023/03/15 08:15:31;;;;;;;7.25;6.55;;;;;;;;;;5051723;28;20497;-63
2023/03/15 08:17:58;;;;;;;8.05;6.43;;;;;;;;;;5045646;28;20055;-63
2023/03/15 08:20:26;;;;;;;12.65;7.55;;;;;;;;;;5050323;28;20080;-63
2023/03/15 08:22:55;;;;;;;10.40;7.40;;;;;;;;;;5044250;28;20083;-63
2023/03/15 08:25:22;;;;;;;11.23;6.90;;;;;;;;;;5051365;28;20049;-63
2023/03/15 08:27:49;;;;;;;11.30;6.77;;;;;;;;;;5040172;28;20050;-64
2023/03/15 08:30:17;;;;;;;9.77;7.28;;;;;;;;;;5049782;28;20045;-63
2023/03/15 08:32:45;;;;;;;11.93;7.03;;;;;;;;;;5045882;28;20052;-63
2023/03/15 08:35:12;;;;;;;9.38;7.22;;;;;;;;;;5046708;28;20515;-63
2023/03/15 08:37:41;;;;;;;10.85;7.03;;;;;;;;;;5045470;28;20528;-63
2023/03/15 08:40:09;;;;;;;8.32;7.13;;;;;;;;;;5046596;28;20412;-63
2023/03/15 08:42:35;;;;;;;;;;;;;;;;;;5046543;28;20140;-63
2023/03/15 08:45:05;;;;;;;12.73;6.38;;;;;;;;;;5045172;28;19927;-63
2023/03/15 08:47:35;;;;;;;13.52;6.05;;;;;;;;;;5044456;28;20045;-63
2023/03/15 08:50:04;;;;;;;14.57;6.25;;;;;;;;;;5037974;28;20051;-63
2023/03/15 08:52:31;;;;;;;11.57;6.07;;;;;;;;;;5044642;28;20064;-63
2023/03/15 08:54:57;;;;;;;9.13;5.50;;;;;;;;;;5034159;28;20057;-63
2023/03/15 08:57:24;;;;;;;12.98;6.25;;;;;;;;;;5047587;28;20432;-63
2023/03/15 08:59:51;;;;;;;17.00;7.10;;;;;;;;;;5041520;28;20394;-63
2023/03/15 09:02:18;;;;;;;17.90;6.60;;;;;;;;;;5047864;28;20060;-64
2023/03/15 09:04:44;;;;;;;12.70;7.40;;;;;;;;;;5027030;28;20049;-64
2023/03/15 09:07:11;;;;;;;9.65;7.13;;;;;;;;;;5049993;28;20048;-63
2023/03/15 09:09:37;;;;;;;13.20;7.57;;;;;;;;;;5052162;28;20049;-64
2023/03/15 09:12:04;;;;;;;9.43;7.55;;;;;;;;;;5058231;28;20059;-64
2023/03/15 09:14:30;;;;;;;10.05;8.07;;;;;;;;;;5054312;28;20041;-64
2023/03/15 09:16:56;;;;;;;13.38;7.18;;;;;;;;;;5058160;28;20048;-64
2023/03/15 09:19:23;;;;;;;14.75;9.57;;;;;;;;;;5053546;28;20053;-64
2023/03/15 09:21:50;;;;;;;20.00;12.77;;;;;;;;;;5058128;28;20492;-64
2023/03/15 09:24:17;;;;;;;22.63;12.73;;;;;;;;;;5052871;28;20053;-64
2023/03/15 09:26:43;;;;;;;23.25;12.85;;;;;;;;;;5058089;28;20036;-64
2023/03/15 09:29:09;;;;;;;15.20;8.30;;;;;;;;;;5052488;28;20539;-63
2023/03/15 09:31:36;;;;;;;15.85;8.55;;;;;;;;;;5058107;28;20465;-64
2023/03/15 09:34:02;;;;;;;13.48;7.05;;;;;;;;;;5047254;28;20059;-64
2023/03/15 09:36:28;;;;;;;11.25;5.40;;;;;;;;;;5057686;28;20053;-64
2023/03/15 09:38:55;;;;;;;10.32;5.95;;;;;;;;;;5038345;28;20072;-64
2023/03/15 09:41:40;;;;;;;9.33;5.43;;;;;;;;;;5058137;28;20053;-64
2023/03/15 09:44:15;;;;;;;10.05;5.63;;;;;;;;;;5045716;28;20049;-64
2023/03/15 09:46:47;;;;;;;8.05;5.18;;;;;;;;;;5057658;28;20051;-64
2023/03/15 09:49:32;;;;;;;10.43;5.55;;;;;;;;;;5044955;28;20049;-64
2023/03/15 09:52:02;;;;;;;7.47;4.25;;;;;;;;;;5057712;28;20056;-64
2023/03/15 09:54:37;;;;;;;4.90;2.50;;;;;;;;;;5033105;28;20045;-64
2023/03/15 09:57:05;;;;;;;5.32;1.92;;;;;;;;;;5057956;28;20136;-64
2023/03/15 09:59:34;;;;;;;3.30;1.30;;;;;;;;;;5031625;28;20055;-64
2023/03/15 10:02:10;;;;;;;6.47;2.20;;;;;;;;;;5056410;28;20178;-64
2023/03/15 10:04:39;;;;;;;5.43;1.60;;;;;;;;;;5031471;28;20128;-64
2023/03/15 10:07:08;;;;;;;4.97;1.35;;;;;;;;;;5057110;28;20492;-64
2023/03/15 10:09:34;;;;;;;3.20;1.20;;;;;;;;;;5057159;28;20140;-64
2023/03/15 10:12:05;;;;;;;6.15;1.10;;;;;;;;;;5057606;28;20088;-64
2023/03/15 10:14:54;;;;;;;4.45;1.02;;;;;;;;;;5055460;28;20412;-64
2023/03/15 10:17:26;;;;;;;2.78;0.85;;;;;;;;;;5054326;28;20055;-64
2023/03/15 10:19:57;;;;;;;4.55;1.10;;;;;;;;;;5044050;28;20048;-64
2023/03/15 10:22:26;;;;;;;2.28;1.00;;;;;;;;;;5050148;28;20114;-65
2023/03/15 10:25:00;;;;;;;3.10;1.10;;;;;;;;;;5053433;28;20057;-65
2023/03/15 10:27:45;;;;;;;3.97;1.23;;;;;;;;;;5050267;28;20042;-65
2023/03/15 10:30:15;;;;;;;3.40;1.08;;;;;;;;;;5042092;28;20095;-65
2023/03/15 10:32:42;;;;;;;5.20;1.30;;;;;;;;;;5044347;28;20045;-65
2023/03/15 10:35:16;;;;;;;5.20;1.50;;;;;;;;;;5045812;28;20126;-65
2023/03/15 10:37:43;;;;;;;5.00;1.10;;;;;;;;;;5047704;28;20168;-65
2023/03/15 10:40:15;;;;;;;3.78;0.93;;;;;;;;;;5049757;28;20136;-65
2023/03/15 10:42:43;;;;;;;4.32;1.00;;;;;;;;;;5047647;28;20520;-65
2023/03/15 10:45:11;;;;;;;4.50;0.85;;;;;;;;;;5048160;28;20507;-65
2023/03/15 10:47:43;;;;;;;3.03;0.90;;;;;;;;;;5044961;28;20482;-65
2023/03/15 10:50:26;;;;;;;3.20;1.10;;;;;;;;;;5043211;28;20053;-65
2023/03/15 10:52:56;;;;;;;2.90;1.15;;;;;;;;;;5040695;28;20046;-65
2023/03/15 10:55:35;;;;;;;3.05;1.10;;;;;;;;;;5042733;28;20148;-65
2023/03/15 10:58:26;;;;;;;2.85;1.10;;;;;;;;;;5038070;28;20565;-65
2023/03/15 11:01:06;;;;;;;4.22;1.10;;;;;;;;;;5049678;28;20055;-65
2023/03/15 11:03:33;;;;;;;3.80;1.20;;;;;;;;;;5027560;28;20077;-65
2023/03/15 11:05:59;;;;;;;4.57;1.57;;;;;;;;;;5049864;28;20041;-65
2023/03/15 11:08:40;;;;;;;2.45;1.20;;;;;;;;;;5051967;28;20055;-65
2023/03/15 11:11:06;;;;;;;6.15;2.05;;;;;;;;;;5053287;28;20041;-65
2023/03/15 11:13:34;;;;;;;4.10;1.70;;;;;;;;;;5049057;28;20049;-65
2023/03/15 11:16:05;;;;;;;6.45;1.50;;;;;;;;;;5052617;28;20547;-65
2023/03/15 11:18:41;;;;;;;4.47;2.05;;;;;;;;;;5049586;28;20057;-65
2023/03/15 11:21:09;;;;;;;4.82;1.90;;;;;;;;;;5053030;28;20049;-65
2023/03/15 11:23:37;;;;;;;4.88;1.67;;;;;;;;;;5046388;28;20071;-65
2023/03/15 11:26:04;;;;;;;;;;;;;;;;;;5052572;28;20056;-65
2023/03/15 11:28:31;;;;;;;5.47;2.10;;;;;;;;;;5045131;28;19925;-65
2023/03/15 11:30:59;;;;;;;6.28;2.08;;;;;;;;;;5053156;28;20099;-65
2023/03/15 11:33:28;;;;;;;3.38;1.70;;;;;;;;;;5042357;28;20060;-65
2023/03/15 11:35:56;;;;;;;4.53;2.00;;;;;;;;;;5052780;28;20076;-65
2023/03/15 11:38:32;;;;;;;6.70;2.45;;;;;;;;;;5041983;28;20080;-65
2023/03/15 11:40:59;;;;;;;7.40;2.10;;;;;;;;;;5053023;28;20124;-65
2023/03/15 11:43:32;;;;;;;5.78;2.28;;;;;;;;;;5040459;28;20145;-65
2023/03/15 11:46:09;;;;;;;7.32;2.35;;;;;;;;;;5051712;28;20047;-65
2023/03/15 11:48:39;;;;;;;4.88;2.50;;;;;;;;;;5039901;28;20481;-65
2023/03/15 11:51:07;;;;;;;4.47;2.30;;;;;;;;;;5052675;28;20464;-65
2023/03/15 11:53:35;;;;;;;5.53;2.65;;;;;;;;;;5038975;28;20045;-65
2023/03/15 11:56:22;;;;;;;9.50;3.40;;;;;;;;;;5038906;28;20056;-65
2023/03/15 11:59:03;;;;;;;6.07;2.70;;;;;;;;;;5030865;28;20140;-65
2023/03/15 12:01:29;;;;;;;6.25;2.45;;;;;;;;;;5052810;28;20409;-65
2023/03/15 12:04:14;;;;;;;7.45;2.88;;;;;;;;;;5037002;28;20142;-65
2023/03/15 12:06:41;;;;;;;7.50;2.83;;;;;;;;;;5052626;28;20059;-65
2023/03/15 12:09:26;;;;;;;5.93;2.60;;;;;;;;;;5050082;28;20051;-65
2023/03/15 12:11:55;;;;;;;5.20;2.88;;;;;;;;;;5052310;28;20048;-65
2023/03/15 12:14:29;;;;;;;6.95;2.97;;;;;;;;;;5048897;28;20056;-65
2023/03/15 12:17:16;;;;;;;6.35;2.72;;;;;;;;;;5052336;28;20056;-65
2023/03/15 12:19:42;;;;;;;4.55;2.70;;;;;;;;;;5012589;28;20390;-65
2023/03/15 12:22:16;;;;;;;4.72;3.13;;;;;;;;;;5042286;28;20063;-65
2023/03/15 12:24:44;;;;;;;3.85;2.70;;;;;;;;;;5048666;28;20056;-65
2023/03/15 12:27:18;;;;;;;4.05;2.38;;;;;;;;;;5050501;28;20055;-65
2023/03/15 12:29:46;;;;;;;6.22;3.17;;;;;;;;;;5047790;28;20045;-65
2023/03/15 12:32:16;;;;;;;7.75;3.42;;;;;;;;;;5048993;28;20124;-65
2023/03/15 12:34:51;;;;;;;11.13;3.55;;;;;;;;;;5044341;28;20132;-65
2023/03/15 12:37:17;;;;;;;4.68;2.50;;;;;;;;;;5021158;28;20489;-65
2023/03/15 12:39:45;;;;;;;5.13;2.60;;;;;;;;;;5044039;28;20055;-65
2023/03/15 12:42:12;;;;;;;4.88;2.47;;;;;;;;;;5049557;28;20059;-65
2023/03/15 12:44:40;;;;;;;8.40;2.65;;;;;;;;;;5041205;28;20052;-65
2023/03/15 12:47:07;;;;;;;;;;;;;;;;;;5051443;28;20099;-65
2023/03/15 12:49:35;;;;;;;4.32;2.28;;;;;;;;;;5030266;28;19924;-65
2023/03/15 12:52:10;;;;;;;4.78;2.30;;;;;;;;;;5051382;28;20068;-65
2023/03/15 12:54:45;;;;;;;4.40;2.35;;;;;;;;;;5031772;28;20051;-65
2023/03/15 12:57:20;;;;;;;3.25;1.92;;;;;;;;;;5051042;28;20049;-65
2023/03/15 12:59:49;;;;;;;4.43;1.83;;;;;;;;;;5051421;28;20518;-65
2023/03/15 13:02:22;;;;;;;3.80;1.60;;;;;;;;;;5047738;28;20518;-65
2023/03/15 13:05:12;;;;;;;4.13;1.95;;;;;;;;;;5051708;28;20056;-65
2023/03/15 13:07:52;;;;;;;3.92;1.80;;;;;;;;;;5047504;28;20051;-65
2023/03/15 13:10:19;;;;;;;4.18;1.30;;;;;;;;;;5048177;28;20045;-65
2023/03/15 13:12:53;;;;;;;4.88;1.17;;;;;;;;;;5049293;28;20049;-65
2023/03/15 13:15:43;;;;;;;2.58;1.10;;;;;;;;;;5048160;28;20049;-65
2023/03/15 13:18:16;;;;;;;3.30;1.00;;;;;;;;;;5037589;28;20106;-65
2023/03/15 13:21:12;;;;;;;6.82;1.40;;;;;;;;;;5045167;28;20440;-65
2023/03/15 13:23:41;;;;;;;4.57;1.30;;;;;;;;;;5021661;28;20049;-65
2023/03/15 13:26:24;;;;;;;4.30;1.23;;;;;;;;;;5043132;28;20050;-65
2023/03/15 13:29:05;;;;;;;4.18;1.65;;;;;;;;;;5050509;28;20045;-66
2023/03/15 13:31:32;;;;;;;4.35;1.60;;;;;;;;;;5042831;28;20128;-65
2023/03/15 13:34:10;;;;;;;3.60;1.25;;;;;;;;;;5051579;28;20045;-66
2023/03/15 13:36:47;;;;;;;4.32;1.30;;;;;;;;;;5037164;28;20144;-66
2023/03/15 13:39:17;;;;;;;5.13;0.93;;;;;;;;;;5050452;28;20056;-65
2023/03/15 13:41:44;;;;;;;3.97;0.90;;;;;;;;;;5036973;28;20057;-66
2023/03/15 13:44:14;;;;;;;3.35;0.70;;;;;;;;;;5050799;28;20053;-66
2023/03/15 13:46:41;;;;;;;2.67;0.60;;;;;;;;;;5036244;28;20063;-65
2023/03/15 13:49:10;;;;;;;3.83;1.00;;;;;;;;;;5050245;28;20445;-65
2023/03/15 13:51:38;;;;;;;3.33;0.90;;;;;;;;;;5026152;28;20057;-65
2023/03/15 13:54:04;;;;;;;;;;;;;;;;;;5048207;28;20049;-66
2023/03/15 13:56:54;;;;;;;2.75;0.50;;;;;;;;;;5049523;28;19925;-66
2023/03/15 13:59:22;;;;;;;3.58;0.80;;;;;;;;;;5050949;28;20143;-66
2023/03/15 14:01:52;;;;;;;2.63;0.93;;;;;;;;;;5051235;28;20416;-66
2023/03/15 14:04:20;;;;;;;3.17;0.80;;;;;;;;;;5055090;28;20133;-66
2023/03/15 14:06:46;;;;;;;4.78;0.80;;;;;;;;;;5047806;28;20053;-66
2023/03/15 14:09:20;;;;;;;1.42;0.60;;;;;;;;;;5053998;28;20132;-66
2023/03/15 14:12:07;;;;;;;4.00;0.88;;;;;;;;;;5049482;28;20071;-66
2023/03/15 14:14:37;;;;;;;3.47;0.70;;;;;;;;;;5054370;28;20485;-66
2023/03/15 14:17:16;;;;;;;1.65;0.55;;;;;;;;;;5048260;28;20492;-66
2023/03/15 14:19:50;;;;;;;2.55;0.88;;;;;;;;;;5054585;28;20072;-66
2023/03/15 14:22:17;;;;;;;4.50;0.93;;;;;;;;;;5047622;28;20059;-66
2023/03/15 14:24:46;;;;;;;2.97;0.87;;;;;;;;;;5054697;28;20214;-66
2023/03/15 14:27:24;;;;;;;5.63;0.80;;;;;;;;;;5041221;28;20567;-66
2023/03/15 14:29:53;;;;;;;3.63;0.80;;;;;;;;;;5054233;28;20512;-66
2023/03/15 14:32:30;;;;;;;2.33;0.65;;;;;;;;;;5045573;28;20041;-66
2023/03/15 14:35:16;;;;;;;2.15;0.80;;;;;;;;;;5054031;28;20580;-66
2023/03/15 14:37:43;;;;;;;2.45;0.88;;;;;;;;;;5031923;28;20057;-66
2023/03/15 14:40:15;;;;;;;4.70;0.90;;;;;;;;;;5052574;28;20135;-66
2023/03/15 14:42:46;;;;;;;5.30;0.80;;;;;;;;;;5031266;28;20053;-66
2023/03/15 14:45:13;;;;;;;4.60;0.63;;;;;;;;;;5051659;28;20057;-66
2023/03/15 14:47:42;;;;;;;4.18;1.00;;;;;;;;;;5041067;28;20051;-66
2023/03/15 14:50:23;;;;;;;4.53;1.10;;;;;;;;;;5049067;28;20072;-66
2023/03/15 14:52:50;;;;;;;4.70;0.75;;;;;;;;;;5041783;28;20128;-66
2023/03/15 14:55:21;;;;;;;4.75;1.10;;;;;;;;;;5038393;28;20420;-66